Anhout Swan — OWMK2 — position and weather

sailwx.info

Track history (hours):
 
Tides and Currents Weather Stations Pressure Air Temp Water Temp Dewpoint Dewpoint Depression Visibility Wind Speed Wind Dir Waves Ship Positions

Anhout Swan

Last reported at 2018-Jan-21 13:39 UTC. Time now 2018-Jan-22 22:10 UTC.
Position N 36°03' W 005°19'.

Length 120 m; draft 6.2 m.

Type: Tanker. MMSI: 219473000.

Date/timePositionNaut miles runAvg speedWind from/ knotsBaromVisibWave heightAir tempDewpointWater temp
2018-Jan-21 13:39N 36°03' W 005°19'1 8.9
2018-Jan-21 13:30N 36°03' W 005°18'4 8.7
2018-Jan-21 13:00N 36°03' W 005°12'10811.6
2018-Jan-21 03:40N 36°20' W 002°60'213.1
2018-Jan-21 03:30N 36°20' W 002°57'713.4
2018-Jan-21 03:00N 36°21' W 002°49'1612.4
2018-Jan-21 01:43N 36°24' W 002°29'211.7
2018-Jan-21 01:30N 36°24' W 002°26'611.5
2018-Jan-21 01:00N 36°25' W 002°19'611.5
2018-Jan-21 00:30N 36°26' W 002°12'612.0
2018-Jan-21 00:00N 36°28' W 002°05'612.4
2018-Jan-20 23:30N 36°30' W 001°58'612.9
2018-Jan-20 23:00N 36°33' W 001°51'612.9
2018-Jan-20 22:30N 36°35' W 001°43'612.9
2018-Jan-20 22:00N 36°38' W 001°36'713.1
2018-Jan-20 21:30N 36°40' W 001°28'613.0
2018-Jan-20 21:00N 36°43' W 001°21'612.9
2018-Jan-20 20:30N 36°45' W 001°13'612.8
2018-Jan-20 20:00N 36°48' W 001°06'612.6
2018-Jan-20 19:30N 36°50' W 000°59'612.8
2018-Jan-20 19:00N 36°53' W 000°52'612.9
2018-Jan-20 18:30N 36°55' W 000°44'612.9
2018-Jan-20 18:00N 36°58' W 000°37'612.9
2018-Jan-20 17:30N 36°59' W 000°29'713.0
2018-Jan-20 17:00N 37°00' W 000°21'612.8
2018-Jan-20 16:30N 37°01' W 000°13'713.0
2018-Jan-20 16:00N 37°01' W 000°05'713.1
2018-Jan-20 15:30N 37°02' E 000°04'  
2018-Jan-18 08:03N 36°28' E 014°20'111.0
2018-Jan-18 07:56N 36°27' E 014°21'510.9
2018-Jan-18 07:29N 36°25' E 014°27'510.8
2018-Jan-18 07:00N 36°23' E 014°33'510.9
2018-Jan-18 06:30N 36°22' E 014°39'510.6
2018-Jan-18 06:00N 36°20' E 014°46'  
2018-Jan-12 11:45N 41°20' E 002°09'0 0.0
2018-Jan-12 10:33N 41°20' E 002°09'0 0.0
2018-Jan-12 10:03N 41°20' E 002°09'0 0.0
2018-Jan-12 03:27N 41°20' E 002°09'0 0.0
2018-Jan-11 19:09N 41°20' E 002°09'0 0.0
2018-Jan-11 15:09N 41°20' E 002°09'0 0.0
2018-Jan-11 14:51N 41°20' E 002°09'  
Track history (hours):
 
Tides and Currents Weather Stations Pressure Air Temp Water Temp Dewpoint Dewpoint Depression Visibility Wind Speed Wind Dir Waves Ship Positions

Anhout Swan

Last reported at 2018-Jan-21 13:39 UTC. Time now 2018-Jan-22 22:10 UTC.
Position N 36°03' W 005°19'.

Length 120 m; draft 6.2 m.

Type: Tanker. MMSI: 219473000.

Date/timePositionNaut miles runAvg speedWind from/ knotsBaromVisibWave heightAir tempDewpointWater temp
2018-Jan-21 13:39N 36°03' W 005°19'1 8.9
2018-Jan-21 13:30N 36°03' W 005°18'4 8.7
2018-Jan-21 13:00N 36°03' W 005°12'10811.6
2018-Jan-21 03:40N 36°20' W 002°60'213.1
2018-Jan-21 03:30N 36°20' W 002°57'713.4
2018-Jan-21 03:00N 36°21' W 002°49'1612.4
2018-Jan-21 01:43N 36°24' W 002°29'211.7
2018-Jan-21 01:30N 36°24' W 002°26'611.5
2018-Jan-21 01:00N 36°25' W 002°19'611.5
2018-Jan-21 00:30N 36°26' W 002°12'612.0
2018-Jan-21 00:00N 36°28' W 002°05'612.4
2018-Jan-20 23:30N 36°30' W 001°58'612.9
2018-Jan-20 23:00N 36°33' W 001°51'612.9
2018-Jan-20 22:30N 36°35' W 001°43'612.9
2018-Jan-20 22:00N 36°38' W 001°36'713.1
2018-Jan-20 21:30N 36°40' W 001°28'613.0
2018-Jan-20 21:00N 36°43' W 001°21'612.9
2018-Jan-20 20:30N 36°45' W 001°13'612.8
2018-Jan-20 20:00N 36°48' W 001°06'612.6
2018-Jan-20 19:30N 36°50' W 000°59'612.8
2018-Jan-20 19:00N 36°53' W 000°52'612.9
2018-Jan-20 18:30N 36°55' W 000°44'612.9
2018-Jan-20 18:00N 36°58' W 000°37'612.9
2018-Jan-20 17:30N 36°59' W 000°29'713.0
2018-Jan-20 17:00N 37°00' W 000°21'612.8
2018-Jan-20 16:30N 37°01' W 000°13'713.0
2018-Jan-20 16:00N 37°01' W 000°05'713.1
2018-Jan-20 15:30N 37°02' E 000°04'  
2018-Jan-18 08:03N 36°28' E 014°20'111.0
2018-Jan-18 07:56N 36°27' E 014°21'510.9
2018-Jan-18 07:29N 36°25' E 014°27'510.8
2018-Jan-18 07:00N 36°23' E 014°33'510.9
2018-Jan-18 06:30N 36°22' E 014°39'510.6
2018-Jan-18 06:00N 36°20' E 014°46'  
2018-Jan-12 11:45N 41°20' E 002°09'0 0.0
2018-Jan-12 10:33N 41°20' E 002°09'0 0.0
2018-Jan-12 10:03N 41°20' E 002°09'0 0.0
2018-Jan-12 03:27N 41°20' E 002°09'0 0.0
2018-Jan-11 19:09N 41°20' E 002°09'0 0.0
2018-Jan-11 15:09N 41°20' E 002°09'0 0.0
2018-Jan-11 14:51N 41°20' E 002°09'  

Dump ship's entire track history